PWSweather.com
Personal Weather Stations
Station Observations
KTXROWLE6
Ravens Nest, Rowlett, TX 75089

Ravens NestRowlett, TX 75089

Lat: 32.93105, Lon: -96.57368

Elevation: 556

Station Type: Davis Vantage Pro2 6152

http://rowlett.ws

Latest ConditionsUpdated 12:05:00 PM CST Tuesday, Nov 12, 2019
Currently Today's Max Today's Min Today's Average
Temperature 33.1°F0.6°C 34.0°F1.1°C 22.2°F-5.4°C 26.0°F-3.3°C
Dew Point 5.1°F-14.9°C 14.5°F-9.7°C 3.9°F-15.6°C 9.1°F-12.7°C
Winds 7.1 mph NNE11.4 kmh NNE 10.5 mph -16.9 kmh - - 6.3 mph 10.1 kmh
Wind Gusts 15.0 mph24.1 kmh 20.0 mph32.2 kmh - -
Humidity 30% 57% 29% 49%
Pressure 30.68 in1038.9 mb 30.74 in1041.0 mb 30.61 in1036.6 mb -
Hour Temp Dew Point Humidity Winds Wind Gusts Pressure Precip Precip Rate Daily Precip Total
12:05 PM 33.1°F0.6°C 5.1°F-14.9°C 30% 7.1 mph NNE11.4 kmh NNE 15.0 mph24.1 kmh 30.68 in1038.9 mb 0.00 in0.0 mm 0.00 in0.0 mm 0.00 in0.0 mm
12:00 PM 32.9°F0.5°C 4.9°F-15.1°C 30% 7.2 mph NNE11.6 kmh NNE 15.0 mph24.1 kmh 30.68 in1038.9 mb 0.00 in0.0 mm 0.00 in0.0 mm 0.00 in0.0 mm
11:55 AM 33.3°F0.7°C 4.5°F-15.3°C 29% 6.3 mph NNE10.1 kmh NNE 15.0 mph24.1 kmh 30.69 in1039.3 mb 0.00 in0.0 mm 0.00 in0.0 mm 0.00 in0.0 mm
11:50 AM 34.0°F1.1°C 6.6°F-14.1°C 31% 4.6 mph NNE7.4 kmh NNE 12.0 mph19.3 kmh 30.69 in1039.3 mb 0.00 in0.0 mm 0.00 in0.0 mm 0.00 in0.0 mm
11:45 AM 32.8°F0.4°C 4.8°F-15.1°C 30% 6.3 mph NNE10.1 kmh NNE 12.0 mph19.3 kmh 30.70 in1039.6 mb 0.00 in0.0 mm 0.00 in0.0 mm 0.00 in0.0 mm
11:40 AM 32.7°F0.4°C 5.4°F-14.8°C 31% 5.5 mph NNE8.9 kmh NNE 13.0 mph20.9 kmh 30.70 in1039.6 mb 0.00 in0.0 mm 0.00 in0.0 mm 0.00 in0.0 mm
11:35 AM 32.6°F0.3°C 3.9°F-15.6°C 29% 6.1 mph N9.8 kmh N 14.0 mph22.5 kmh 30.71 in1040.0 mb 0.00 in0.0 mm 0.00 in0.0 mm 0.00 in0.0 mm
11:30 AM 32.3°F0.2°C 5.1°F-14.9°C 31% 6.3 mph N10.1 kmh N 14.0 mph22.5 kmh 30.71 in1040.0 mb 0.00 in0.0 mm 0.00 in0.0 mm 0.00 in0.0 mm
11:25 AM 32.2°F0.1°C 7.0°F-13.9°C 34% 6.0 mph NNE9.7 kmh NNE 13.0 mph20.9 kmh 30.71 in1040.0 mb 0.00 in0.0 mm 0.00 in0.0 mm 0.00 in0.0 mm
11:20 AM 31.7°F-0.2°C 5.3°F-14.8°C 32% 7.5 mph N12.1 kmh N 13.0 mph20.9 kmh 30.71 in1040.0 mb 0.00 in0.0 mm 0.00 in0.0 mm 0.00 in0.0 mm
11:15 AM 31.8°F-0.1°C 5.3°F-14.8°C 32% 6.9 mph NNE11.1 kmh NNE 13.0 mph20.9 kmh 30.71 in1040.0 mb 0.00 in0.0 mm 0.00 in0.0 mm 0.00 in0.0 mm
11:10 AM 31.8°F-0.1°C 5.3°F-14.8°C 32% 6.1 mph NE9.8 kmh NE 13.0 mph20.9 kmh 30.72 in1040.3 mb 0.00 in0.0 mm 0.00 in0.0 mm 0.00 in0.0 mm
11:05 AM 31.7°F-0.2°C 5.9°F-14.5°C 33% 5.8 mph NNE9.3 kmh NNE 13.0 mph20.9 kmh 30.72 in1040.3 mb 0.00 in0.0 mm 0.00 in0.0 mm 0.00 in0.0 mm
11:00 AM 31.7°F-0.2°C 5.9°F-14.5°C 33% 4.1 mph NE6.6 kmh NE 11.0 mph17.7 kmh 30.72 in1040.3 mb 0.00 in0.0 mm 0.00 in0.0 mm 0.00 in0.0 mm
10:55 AM 31.4°F-0.3°C 5.7°F-14.6°C 33% 4.9 mph NNE7.9 kmh NNE 12.0 mph19.3 kmh 30.72 in1040.3 mb 0.00 in0.0 mm 0.00 in0.0 mm 0.00 in0.0 mm
10:50 AM 30.6°F-0.8°C 5.6°F-14.7°C 34% 6.1 mph NNE9.8 kmh NNE 12.0 mph19.3 kmh 30.72 in1040.3 mb 0.00 in0.0 mm 0.00 in0.0 mm 0.00 in0.0 mm
10:45 AM 29.9°F-1.2°C 5.0°F-15.0°C 34% 6.2 mph NE10.0 kmh NE 15.0 mph24.1 kmh 30.72 in1040.3 mb 0.00 in0.0 mm 0.00 in0.0 mm 0.00 in0.0 mm
10:40 AM 29.8°F-1.2°C 4.9°F-15.1°C 34% 6.3 mph NE10.1 kmh NE 15.0 mph24.1 kmh 30.73 in1040.6 mb 0.00 in0.0 mm 0.00 in0.0 mm 0.00 in0.0 mm
10:35 AM 30.5°F-0.8°C 6.1°F-14.4°C 35% 5.0 mph NNE8.0 kmh NNE 13.0 mph20.9 kmh 30.73 in1040.6 mb 0.00 in0.0 mm 0.00 in0.0 mm 0.00 in0.0 mm
10:30 AM 29.7°F-1.3°C 5.4°F-14.8°C 35% 5.9 mph NNE9.5 kmh NNE 12.0 mph19.3 kmh 30.72 in1040.3 mb 0.00 in0.0 mm 0.00 in0.0 mm 0.00 in0.0 mm
10:25 AM 29.4°F-1.4°C 5.8°F-14.6°C 36% 6.2 mph NNE10.0 kmh NNE 12.0 mph19.3 kmh 30.72 in1040.3 mb 0.00 in0.0 mm 0.00 in0.0 mm 0.00 in0.0 mm
10:20 AM 29.2°F-1.6°C 5.6°F-14.7°C 36% 5.3 mph NNE8.5 kmh NNE 12.0 mph19.3 kmh 30.73 in1040.6 mb 0.00 in0.0 mm 0.00 in0.0 mm 0.00 in0.0 mm
10:15 AM 29.4°F-1.4°C 6.4°F-14.2°C 37% 3.7 mph E6.0 kmh E 10.0 mph16.1 kmh 30.73 in1040.6 mb 0.00 in0.0 mm 0.00 in0.0 mm 0.00 in0.0 mm
10:10 AM 28.8°F-1.8°C 5.2°F-14.9°C 36% 6.0 mph NNE9.7 kmh NNE 12.0 mph19.3 kmh 30.74 in1041.0 mb 0.00 in0.0 mm 0.00 in0.0 mm 0.00 in0.0 mm
10:05 AM 28.8°F-1.8°C 5.2°F-14.9°C 36% 7.1 mph NNE11.4 kmh NNE 13.0 mph20.9 kmh 30.74 in1041.0 mb 0.00 in0.0 mm 0.00 in0.0 mm 0.00 in0.0 mm
10:00 AM 28.8°F-1.8°C 5.8°F-14.6°C 37% 6.4 mph NNE10.3 kmh NNE 13.0 mph20.9 kmh 30.74 in1041.0 mb 0.00 in0.0 mm 0.00 in0.0 mm 0.00 in0.0 mm
09:55 AM 28.6°F-1.9°C 6.3°F-14.3°C 38% 5.3 mph NNE8.5 kmh NNE 12.0 mph19.3 kmh 30.74 in1041.0 mb 0.00 in0.0 mm 0.00 in0.0 mm 0.00 in0.0 mm
09:50 AM 27.9°F-2.3°C 5.6°F-14.7°C 38% 6.4 mph NNE10.3 kmh NNE 12.0 mph19.3 kmh 30.73 in1040.6 mb 0.00 in0.0 mm 0.00 in0.0 mm 0.00 in0.0 mm
09:45 AM 28.1°F-2.2°C 6.9°F-13.9°C 40% 5.1 mph NE8.2 kmh NE 12.0 mph19.3 kmh 30.74 in1041.0 mb 0.00 in0.0 mm 0.00 in0.0 mm 0.00 in0.0 mm
09:40 AM 27.4°F-2.6°C 6.8°F-14.0°C 41% 6.2 mph NNE10.0 kmh NNE 11.0 mph17.7 kmh 30.74 in1041.0 mb 0.00 in0.0 mm 0.00 in0.0 mm 0.00 in0.0 mm
09:35 AM 27.4°F-2.6°C 6.3°F-14.3°C 40% 6.1 mph NNE9.8 kmh NNE 12.0 mph19.3 kmh 30.73 in1040.6 mb 0.00 in0.0 mm 0.00 in0.0 mm 0.00 in0.0 mm
09:30 AM 27.0°F-2.8°C 6.5°F-14.2°C 41% 6.0 mph NNE9.7 kmh NNE 12.0 mph19.3 kmh 30.74 in1041.0 mb 0.00 in0.0 mm 0.00 in0.0 mm 0.00 in0.0 mm
09:25 AM 26.8°F-2.9°C 5.8°F-14.6°C 40% 5.8 mph NNE9.3 kmh NNE 12.0 mph19.3 kmh 30.74 in1041.0 mb 0.00 in0.0 mm 0.00 in0.0 mm 0.00 in0.0 mm
09:20 AM 26.8°F-2.9°C 5.8°F-14.6°C 40% 5.8 mph NE9.3 kmh NE 12.0 mph19.3 kmh 30.73 in1040.6 mb 0.00 in0.0 mm 0.00 in0.0 mm 0.00 in0.0 mm
09:15 AM 27.0°F-2.8°C 6.5°F-14.2°C 41% 4.9 mph NE7.9 kmh NE 11.0 mph17.7 kmh 30.73 in1040.6 mb 0.00 in0.0 mm 0.00 in0.0 mm 0.00 in0.0 mm
09:10 AM 26.5°F-3.1°C 6.5°F-14.2°C 42% 5.6 mph NNE9.0 kmh NNE 14.0 mph22.5 kmh 30.73 in1040.6 mb 0.00 in0.0 mm 0.00 in0.0 mm 0.00 in0.0 mm
09:05 AM 26.0°F-3.3°C 6.6°F-14.1°C 43% 7.7 mph NE12.4 kmh NE 15.0 mph24.1 kmh 30.73 in1040.6 mb 0.00 in0.0 mm 0.00 in0.0 mm 0.00 in0.0 mm
09:00 AM 25.8°F-3.4°C 6.4°F-14.2°C 43% 6.9 mph NNE11.1 kmh NNE 15.0 mph24.1 kmh 30.73 in1040.6 mb 0.00 in0.0 mm 0.00 in0.0 mm 0.00 in0.0 mm
08:55 AM 25.6°F-3.6°C 6.2°F-14.3°C 43% 6.3 mph NE10.1 kmh NE 14.0 mph22.5 kmh 30.74 in1041.0 mb 0.00 in0.0 mm 0.00 in0.0 mm 0.00 in0.0 mm
08:50 AM 25.4°F-3.7°C 6.6°F-14.1°C 44% 6.9 mph NE11.1 kmh NE 15.0 mph24.1 kmh 30.74 in1041.0 mb 0.00 in0.0 mm 0.00 in0.0 mm 0.00 in0.0 mm
08:45 AM 25.0°F-3.9°C 7.6°F-13.6°C 47% 6.9 mph NNE11.1 kmh NNE 15.0 mph24.1 kmh 30.73 in1040.6 mb 0.00 in0.0 mm 0.00 in0.0 mm 0.00 in0.0 mm
08:40 AM 24.9°F-3.9°C 7.1°F-13.8°C 46% 6.7 mph NE10.8 kmh NE 14.0 mph22.5 kmh 30.74 in1041.0 mb 0.00 in0.0 mm 0.00 in0.0 mm 0.00 in0.0 mm
08:35 AM 25.2°F-3.8°C 8.3°F-13.2°C 48% 5.9 mph NE9.5 kmh NE 14.0 mph22.5 kmh 30.73 in1040.6 mb 0.00 in0.0 mm 0.00 in0.0 mm 0.00 in0.0 mm
08:30 AM 24.9°F-3.9°C 8.0°F-13.3°C 48% 6.8 mph NNE10.9 kmh NNE 14.0 mph22.5 kmh 30.73 in1040.6 mb 0.00 in0.0 mm 0.00 in0.0 mm 0.00 in0.0 mm
08:25 AM 25.0°F-3.9°C 8.6°F-13.0°C 49% 3.7 mph NE6.0 kmh NE 12.0 mph19.3 kmh 30.73 in1040.6 mb 0.00 in0.0 mm 0.00 in0.0 mm 0.00 in0.0 mm
08:20 AM 24.7°F-4.1°C 8.7°F-12.9°C 50% 4.3 mph NE6.9 kmh NE 10.0 mph16.1 kmh 30.73 in1040.6 mb 0.00 in0.0 mm 0.00 in0.0 mm 0.00 in0.0 mm
08:15 AM 24.4°F-4.2°C 9.3°F-12.6°C 52% 4.4 mph NE7.1 kmh NE 10.0 mph16.1 kmh 30.73 in1040.6 mb 0.00 in0.0 mm 0.00 in0.0 mm 0.00 in0.0 mm
08:10 AM 24.3°F-4.3°C 10.1°F-12.2°C 54% 3.9 mph NE6.3 kmh NE 9.0 mph14.5 kmh 30.72 in1040.3 mb 0.00 in0.0 mm 0.00 in0.0 mm 0.00 in0.0 mm
08:05 AM 24.0°F-4.4°C 10.2°F-12.1°C 55% 4.4 mph NE7.1 kmh NE 9.0 mph14.5 kmh 30.73 in1040.6 mb 0.00 in0.0 mm 0.00 in0.0 mm 0.00 in0.0 mm
08:00 AM 23.7°F-4.6°C 10.7°F-11.8°C 57% 5.0 mph NNE8.0 kmh NNE 10.0 mph16.1 kmh 30.73 in1040.6 mb 0.00 in0.0 mm 0.00 in0.0 mm 0.00 in0.0 mm
07:55 AM 23.4°F-4.8°C 10.4°F-12.0°C 57% 6.8 mph NNE10.9 kmh NNE 10.0 mph16.1 kmh 30.73 in1040.6 mb 0.00 in0.0 mm 0.00 in0.0 mm 0.00 in0.0 mm
07:50 AM 23.4°F-4.8°C 10.4°F-12.0°C 57% 6.0 mph NNE9.7 kmh NNE 11.0 mph17.7 kmh 30.73 in1040.6 mb 0.00 in0.0 mm 0.00 in0.0 mm 0.00 in0.0 mm
07:45 AM 23.4°F-4.8°C 10.4°F-12.0°C 57% 4.6 mph NE7.4 kmh NE 9.0 mph14.5 kmh 30.73 in1040.6 mb 0.00 in0.0 mm 0.00 in0.0 mm 0.00 in0.0 mm
07:40 AM 23.2°F-4.9°C 10.3°F-12.1°C 57% 4.2 mph NE6.8 kmh NE 9.0 mph14.5 kmh 30.73 in1040.6 mb 0.00 in0.0 mm 0.00 in0.0 mm 0.00 in0.0 mm
07:35 AM 23.1°F-4.9°C 10.2°F-12.1°C 57% 2.7 mph ENE4.3 kmh ENE 8.0 mph12.9 kmh 30.73 in1040.6 mb 0.00 in0.0 mm 0.00 in0.0 mm 0.00 in0.0 mm
07:30 AM 22.8°F-5.1°C 9.5°F-12.5°C 56% 3.8 mph NE6.1 kmh NE 9.0 mph14.5 kmh 30.73 in1040.6 mb 0.00 in0.0 mm 0.00 in0.0 mm 0.00 in0.0 mm
07:25 AM 22.7°F-5.2°C 9.4°F-12.6°C 56% 4.7 mph NE7.6 kmh NE 9.0 mph14.5 kmh 30.73 in1040.6 mb 0.00 in0.0 mm 0.00 in0.0 mm 0.00 in0.0 mm
07:20 AM 22.5°F-5.3°C 9.6°F-12.4°C 57% 5.0 mph NNE8.0 kmh NNE 9.0 mph14.5 kmh 30.73 in1040.6 mb 0.00 in0.0 mm 0.00 in0.0 mm 0.00 in0.0 mm
07:15 AM 22.4°F-5.3°C 9.5°F-12.5°C 57% 3.0 mph NE4.8 kmh NE 10.0 mph16.1 kmh 30.73 in1040.6 mb 0.00 in0.0 mm 0.00 in0.0 mm 0.00 in0.0 mm
07:10 AM 22.3°F-5.4°C 9.0°F-12.8°C 56% 4.9 mph NNE7.9 kmh NNE 10.0 mph16.1 kmh 30.73 in1040.6 mb 0.00 in0.0 mm 0.00 in0.0 mm 0.00 in0.0 mm
07:05 AM 22.2°F-5.4°C 9.3°F-12.6°C 57% 3.3 mph NNE5.3 kmh NNE 11.0 mph17.7 kmh 30.73 in1040.6 mb 0.00 in0.0 mm 0.00 in0.0 mm 0.00 in0.0 mm
07:00 AM 22.3°F-5.4°C 9.0°F-12.8°C 56% 4.7 mph NNE7.6 kmh NNE 11.0 mph17.7 kmh 30.72 in1040.3 mb 0.00 in0.0 mm 0.00 in0.0 mm 0.00 in0.0 mm
06:55 AM 22.2°F-5.4°C 8.9°F-12.8°C 56% 5.1 mph NNE8.2 kmh NNE 10.0 mph16.1 kmh 30.72 in1040.3 mb 0.00 in0.0 mm 0.00 in0.0 mm 0.00 in0.0 mm
06:50 AM 22.3°F-5.4°C 9.0°F-12.8°C 56% 4.6 mph NNE7.4 kmh NNE 10.0 mph16.1 kmh 30.72 in1040.3 mb 0.00 in0.0 mm 0.00 in0.0 mm 0.00 in0.0 mm
06:45 AM 22.4°F-5.3°C 9.1°F-12.7°C 56% 4.7 mph NE7.6 kmh NE 12.0 mph19.3 kmh 30.72 in1040.3 mb 0.00 in0.0 mm 0.00 in0.0 mm 0.00 in0.0 mm
06:40 AM 22.4°F-5.3°C 8.7°F-12.9°C 55% 4.7 mph NE7.6 kmh NE 12.0 mph19.3 kmh 30.71 in1040.0 mb 0.00 in0.0 mm 0.00 in0.0 mm 0.00 in0.0 mm
06:35 AM 22.5°F-5.3°C 8.8°F-12.9°C 55% 5.4 mph NNE8.7 kmh NNE 11.0 mph17.7 kmh 30.71 in1040.0 mb 0.00 in0.0 mm 0.00 in0.0 mm 0.00 in0.0 mm
06:30 AM 22.6°F-5.2°C 8.5°F-13.1°C 54% 5.4 mph NNE8.7 kmh NNE 12.0 mph19.3 kmh 30.72 in1040.3 mb 0.00 in0.0 mm 0.00 in0.0 mm 0.00 in0.0 mm
06:25 AM 22.7°F-5.2°C 8.6°F-13.0°C 54% 6.1 mph NNE9.8 kmh NNE 12.0 mph19.3 kmh 30.71 in1040.0 mb 0.00 in0.0 mm 0.00 in0.0 mm 0.00 in0.0 mm
06:20 AM 22.7°F-5.2°C 8.6°F-13.0°C 54% 6.5 mph NNE10.5 kmh NNE 12.0 mph19.3 kmh 30.71 in1040.0 mb 0.00 in0.0 mm 0.00 in0.0 mm 0.00 in0.0 mm
06:15 AM 22.6°F-5.2°C 8.5°F-13.1°C 54% 6.4 mph NNE10.3 kmh NNE 16.0 mph25.7 kmh 30.71 in1040.0 mb 0.00 in0.0 mm 0.00 in0.0 mm 0.00 in0.0 mm
06:10 AM 22.7°F-5.2°C 8.2°F-13.2°C 53% 5.8 mph NNE9.3 kmh NNE 16.0 mph25.7 kmh 30.71 in1040.0 mb 0.00 in0.0 mm 0.00 in0.0 mm 0.00 in0.0 mm
06:05 AM 22.7°F-5.2°C 8.2°F-13.2°C 53% 5.9 mph NNE9.5 kmh NNE 14.0 mph22.5 kmh 30.70 in1039.6 mb 0.00 in0.0 mm 0.00 in0.0 mm 0.00 in0.0 mm
06:00 AM 22.8°F-5.1°C 7.8°F-13.4°C 52% 5.1 mph NNE8.2 kmh NNE 13.0 mph20.9 kmh 30.70 in1039.6 mb 0.00 in0.0 mm 0.00 in0.0 mm 0.00 in0.0 mm
05:55 AM 22.9°F-5.1°C 7.9°F-13.4°C 52% 7.5 mph NNE12.1 kmh NNE 14.0 mph22.5 kmh 30.70 in1039.6 mb 0.00 in0.0 mm 0.00 in0.0 mm 0.00 in0.0 mm
05:50 AM 22.9°F-5.1°C 7.9°F-13.4°C 52% 7.0 mph NE11.3 kmh NE 15.0 mph24.1 kmh 30.70 in1039.6 mb 0.00 in0.0 mm 0.00 in0.0 mm 0.00 in0.0 mm
05:45 AM 22.9°F-5.1°C 7.9°F-13.4°C 52% 8.6 mph NNE13.8 kmh NNE 15.0 mph24.1 kmh 30.70 in1039.6 mb 0.00 in0.0 mm 0.00 in0.0 mm 0.00 in0.0 mm
05:40 AM 22.9°F-5.1°C 7.9°F-13.4°C 52% 5.6 mph NE9.0 kmh NE 13.0 mph20.9 kmh 30.70 in1039.6 mb 0.00 in0.0 mm 0.00 in0.0 mm 0.00 in0.0 mm
05:35 AM 22.9°F-5.1°C 7.9°F-13.4°C 52% 5.5 mph NE8.9 kmh NE 14.0 mph22.5 kmh 30.69 in1039.3 mb 0.00 in0.0 mm 0.00 in0.0 mm 0.00 in0.0 mm
05:30 AM 23.0°F-5.0°C 8.0°F-13.3°C 52% 6.8 mph NNE10.9 kmh NNE 14.0 mph22.5 kmh 30.70 in1039.6 mb 0.00 in0.0 mm 0.00 in0.0 mm 0.00 in0.0 mm
05:25 AM 23.1°F-4.9°C 8.1°F-13.3°C 52% 6.8 mph NE10.9 kmh NE 15.0 mph24.1 kmh 30.69 in1039.3 mb 0.00 in0.0 mm 0.00 in0.0 mm 0.00 in0.0 mm
05:20 AM 23.1°F-4.9°C 8.1°F-13.3°C 52% 6.9 mph NNE11.1 kmh NNE 15.0 mph24.1 kmh 30.69 in1039.3 mb 0.00 in0.0 mm 0.00 in0.0 mm 0.00 in0.0 mm
05:15 AM 23.2°F-4.9°C 8.2°F-13.2°C 52% 7.4 mph NNE11.9 kmh NNE 15.0 mph24.1 kmh 30.69 in1039.3 mb 0.00 in0.0 mm 0.00 in0.0 mm 0.00 in0.0 mm
05:10 AM 23.2°F-4.9°C 8.2°F-13.2°C 52% 7.0 mph NE11.3 kmh NE 17.0 mph27.4 kmh 30.69 in1039.3 mb 0.00 in0.0 mm 0.00 in0.0 mm 0.00 in0.0 mm
05:05 AM 23.3°F-4.8°C 8.3°F-13.2°C 52% 7.9 mph NNE12.7 kmh NNE 17.0 mph27.4 kmh 30.69 in1039.3 mb 0.00 in0.0 mm 0.00 in0.0 mm 0.00 in0.0 mm
05:00 AM 23.3°F-4.8°C 8.3°F-13.2°C 52% 7.3 mph NNE11.7 kmh NNE 16.0 mph25.7 kmh 30.68 in1038.9 mb 0.00 in0.0 mm 0.00 in0.0 mm 0.00 in0.0 mm
04:55 AM 23.4°F-4.8°C 8.4°F-13.1°C 52% 7.0 mph NNE11.3 kmh NNE 16.0 mph25.7 kmh 30.68 in1038.9 mb 0.00 in0.0 mm 0.00 in0.0 mm 0.00 in0.0 mm
04:50 AM 23.4°F-4.8°C 8.0°F-13.3°C 51% 7.8 mph NNE12.6 kmh NNE 16.0 mph25.7 kmh 30.68 in1038.9 mb 0.00 in0.0 mm 0.00 in0.0 mm 0.00 in0.0 mm
04:45 AM 23.5°F-4.7°C 8.1°F-13.3°C 51% 7.8 mph NNE12.6 kmh NNE 16.0 mph25.7 kmh 30.68 in1038.9 mb 0.00 in0.0 mm 0.00 in0.0 mm 0.00 in0.0 mm
04:40 AM 23.5°F-4.7°C 8.5°F-13.1°C 52% 7.0 mph NNE11.3 kmh NNE 16.0 mph25.7 kmh 30.67 in1038.6 mb 0.00 in0.0 mm 0.00 in0.0 mm 0.00 in0.0 mm
04:35 AM 23.6°F-4.7°C 8.6°F-13.0°C 52% 6.6 mph NNE10.6 kmh NNE 17.0 mph27.4 kmh 30.67 in1038.6 mb 0.00 in0.0 mm 0.00 in0.0 mm 0.00 in0.0 mm
04:30 AM 23.6°F-4.7°C 8.6°F-13.0°C 52% 7.9 mph NNE12.7 kmh NNE 17.0 mph27.4 kmh 30.67 in1038.6 mb 0.00 in0.0 mm 0.00 in0.0 mm 0.00 in0.0 mm
04:25 AM 23.6°F-4.7°C 8.6°F-13.0°C 52% 5.7 mph NE9.2 kmh NE 16.0 mph25.7 kmh 30.67 in1038.6 mb 0.00 in0.0 mm 0.00 in0.0 mm 0.00 in0.0 mm
04:20 AM 23.8°F-4.6°C 8.8°F-12.9°C 52% 7.7 mph NNE12.4 kmh NNE 16.0 mph25.7 kmh 30.68 in1038.9 mb 0.00 in0.0 mm 0.00 in0.0 mm 0.00 in0.0 mm
04:15 AM 23.8°F-4.6°C 9.2°F-12.7°C 53% 7.6 mph NNE12.2 kmh NNE 14.0 mph22.5 kmh 30.67 in1038.6 mb 0.00 in0.0 mm 0.00 in0.0 mm 0.00 in0.0 mm
04:10 AM 23.8°F-4.6°C 9.2°F-12.7°C 53% 6.0 mph NNE9.7 kmh NNE 13.0 mph20.9 kmh 30.67 in1038.6 mb 0.00 in0.0 mm 0.00 in0.0 mm 0.00 in0.0 mm
04:05 AM 23.9°F-4.5°C 9.3°F-12.6°C 53% 5.5 mph NE8.9 kmh NE 13.0 mph20.9 kmh 30.67 in1038.6 mb 0.00 in0.0 mm 0.00 in0.0 mm 0.00 in0.0 mm
04:00 AM 24.0°F-4.4°C 9.0°F-12.8°C 52% 5.9 mph NE9.5 kmh NE 19.0 mph30.6 kmh 30.67 in1038.6 mb 0.00 in0.0 mm 0.00 in0.0 mm 0.00 in0.0 mm
03:55 AM 24.1°F-4.4°C 9.1°F-12.7°C 52% 9.6 mph NNE15.4 kmh NNE 19.0 mph30.6 kmh 30.67 in1038.6 mb 0.00 in0.0 mm 0.00 in0.0 mm 0.00 in0.0 mm
03:50 AM 24.1°F-4.4°C 9.5°F-12.5°C 53% 6.3 mph NE10.1 kmh NE 17.0 mph27.4 kmh 30.66 in1038.3 mb 0.00 in0.0 mm 0.00 in0.0 mm 0.00 in0.0 mm
03:45 AM 24.1°F-4.4°C 9.5°F-12.5°C 53% 4.9 mph NE7.9 kmh NE 16.0 mph25.7 kmh 30.66 in1038.3 mb 0.00 in0.0 mm 0.00 in0.0 mm 0.00 in0.0 mm
03:40 AM 24.2°F-4.3°C 9.6°F-12.4°C 53% 3.5 mph NE5.6 kmh NE 11.0 mph17.7 kmh 30.66 in1038.3 mb 0.00 in0.0 mm 0.00 in0.0 mm 0.00 in0.0 mm
03:35 AM 24.4°F-4.2°C 9.3°F-12.6°C 52% 4.9 mph NE7.9 kmh NE 12.0 mph19.3 kmh 30.66 in1038.3 mb 0.00 in0.0 mm 0.00 in0.0 mm 0.00 in0.0 mm
03:30 AM 24.5°F-4.2°C 9.4°F-12.6°C 52% 5.5 mph N8.9 kmh N 15.0 mph24.1 kmh 30.66 in1038.3 mb 0.00 in0.0 mm 0.00 in0.0 mm 0.00 in0.0 mm
03:25 AM 24.4°F-4.2°C 10.2°F-12.1°C 54% 5.9 mph N9.5 kmh N 17.0 mph27.4 kmh 30.66 in1038.3 mb 0.00 in0.0 mm 0.00 in0.0 mm 0.00 in0.0 mm
03:20 AM 24.4°F-4.2°C 9.8°F-12.3°C 53% 8.8 mph N14.2 kmh N 17.0 mph27.4 kmh 30.66 in1038.3 mb 0.00 in0.0 mm 0.00 in0.0 mm 0.00 in0.0 mm
03:15 AM 24.6°F-4.1°C 10.4°F-12.0°C 54% 7.3 mph NNW11.7 kmh NNW 17.0 mph27.4 kmh 30.66 in1038.3 mb 0.00 in0.0 mm 0.00 in0.0 mm 0.00 in0.0 mm
03:10 AM 24.7°F-4.1°C 10.5°F-11.9°C 54% 8.8 mph NNW14.2 kmh NNW 17.0 mph27.4 kmh 30.66 in1038.3 mb 0.00 in0.0 mm 0.00 in0.0 mm 0.00 in0.0 mm
03:05 AM 24.8°F-4.0°C 10.5°F-11.9°C 54% 7.5 mph N12.1 kmh N 20.0 mph32.2 kmh 30.66 in1038.3 mb 0.00 in0.0 mm 0.00 in0.0 mm 0.00 in0.0 mm
03:00 AM 24.9°F-3.9°C 10.6°F-11.9°C 54% 10.5 mph NNW16.9 kmh NNW 20.0 mph32.2 kmh 30.65 in1037.9 mb 0.00 in0.0 mm 0.00 in0.0 mm 0.00 in0.0 mm
02:55 AM 25.1°F-3.8°C 11.2°F-11.6°C 55% 6.5 mph NNW10.5 kmh NNW 17.0 mph27.4 kmh 30.65 in1037.9 mb 0.00 in0.0 mm 0.00 in0.0 mm 0.00 in0.0 mm
02:50 AM 25.3°F-3.7°C 11.8°F-11.2°C 56% 4.8 mph N7.7 kmh N 13.0 mph20.9 kmh 30.65 in1037.9 mb 0.00 in0.0 mm 0.00 in0.0 mm 0.00 in0.0 mm
02:45 AM 25.4°F-3.7°C 11.9°F-11.2°C 56% 5.4 mph N8.7 kmh N 14.0 mph22.5 kmh 30.65 in1037.9 mb 0.00 in0.0 mm 0.00 in0.0 mm 0.00 in0.0 mm
02:40 AM 25.4°F-3.7°C 11.9°F-11.2°C 56% 7.7 mph NNW12.4 kmh NNW 14.0 mph22.5 kmh 30.64 in1037.6 mb 0.00 in0.0 mm 0.00 in0.0 mm 0.00 in0.0 mm
02:35 AM 25.4°F-3.7°C 11.9°F-11.2°C 56% 4.1 mph NNW6.6 kmh NNW 11.0 mph17.7 kmh 30.64 in1037.6 mb 0.00 in0.0 mm 0.00 in0.0 mm 0.00 in0.0 mm
02:30 AM 25.6°F-3.6°C 12.1°F-11.1°C 56% 4.2 mph N6.8 kmh N 12.0 mph19.3 kmh 30.64 in1037.6 mb 0.00 in0.0 mm 0.00 in0.0 mm 0.00 in0.0 mm
02:25 AM 25.8°F-3.4°C 11.9°F-11.2°C 55% 5.6 mph NNW9.0 kmh NNW 17.0 mph27.4 kmh 30.64 in1037.6 mb 0.00 in0.0 mm 0.00 in0.0 mm 0.00 in0.0 mm
02:20 AM 26.0°F-3.3°C 11.7°F-11.3°C 54% 6.0 mph N9.7 kmh N 17.0 mph27.4 kmh 30.64 in1037.6 mb 0.00 in0.0 mm 0.00 in0.0 mm 0.00 in0.0 mm
02:15 AM 26.1°F-3.3°C 11.8°F-11.2°C 54% 7.5 mph N12.1 kmh N 16.0 mph25.7 kmh 30.64 in1037.6 mb 0.00 in0.0 mm 0.00 in0.0 mm 0.00 in0.0 mm
02:10 AM 26.2°F-3.2°C 12.3°F-10.9°C 55% 8.5 mph NNW13.7 kmh NNW 18.0 mph29.0 kmh 30.64 in1037.6 mb 0.00 in0.0 mm 0.00 in0.0 mm 0.00 in0.0 mm
02:05 AM 26.3°F-3.2°C 12.4°F-10.9°C 55% 8.8 mph NNW14.2 kmh NNW 18.0 mph29.0 kmh 30.64 in1037.6 mb 0.00 in0.0 mm 0.00 in0.0 mm 0.00 in0.0 mm
02:00 AM 26.4°F-3.1°C 12.5°F-10.8°C 55% 8.8 mph NNW14.2 kmh NNW 16.0 mph25.7 kmh 30.64 in1037.6 mb 0.00 in0.0 mm 0.00 in0.0 mm 0.00 in0.0 mm
01:55 AM 26.4°F-3.1°C 12.9°F-10.6°C 56% 6.8 mph NNW10.9 kmh NNW 17.0 mph27.4 kmh 30.64 in1037.6 mb 0.00 in0.0 mm 0.00 in0.0 mm 0.00 in0.0 mm
01:50 AM 26.4°F-3.1°C 12.5°F-10.8°C 55% 7.0 mph NNW11.3 kmh NNW 17.0 mph27.4 kmh 30.64 in1037.6 mb 0.00 in0.0 mm 0.00 in0.0 mm 0.00 in0.0 mm
01:45 AM 26.6°F-3.0°C 13.4°F-10.3°C 57% 5.6 mph NNW9.0 kmh NNW 14.0 mph22.5 kmh 30.64 in1037.6 mb 0.00 in0.0 mm 0.00 in0.0 mm 0.00 in0.0 mm
01:40 AM 26.6°F-3.0°C 13.0°F-10.6°C 56% 6.5 mph NNW10.5 kmh NNW 14.0 mph22.5 kmh 30.63 in1037.3 mb 0.00 in0.0 mm 0.00 in0.0 mm 0.00 in0.0 mm
01:35 AM 26.7°F-2.9°C 13.1°F-10.5°C 56% 6.0 mph N9.7 kmh N 15.0 mph24.1 kmh 30.63 in1037.3 mb 0.00 in0.0 mm 0.00 in0.0 mm 0.00 in0.0 mm
01:30 AM 26.8°F-2.9°C 12.8°F-10.7°C 55% 7.3 mph NNW11.7 kmh NNW 15.0 mph24.1 kmh 30.63 in1037.3 mb 0.00 in0.0 mm 0.00 in0.0 mm 0.00 in0.0 mm
01:25 AM 26.9°F-2.8°C 13.3°F-10.4°C 56% 5.6 mph NNW9.0 kmh NNW 13.0 mph20.9 kmh 30.63 in1037.3 mb 0.00 in0.0 mm 0.00 in0.0 mm 0.00 in0.0 mm
01:20 AM 27.0°F-2.8°C 13.0°F-10.6°C 55% 5.8 mph N9.3 kmh N 14.0 mph22.5 kmh 30.63 in1037.3 mb 0.00 in0.0 mm 0.00 in0.0 mm 0.00 in0.0 mm
01:15 AM 27.1°F-2.7°C 12.7°F-10.7°C 54% 8.2 mph NNW13.2 kmh NNW 18.0 mph29.0 kmh 30.63 in1037.3 mb 0.00 in0.0 mm 0.00 in0.0 mm 0.00 in0.0 mm
01:10 AM 27.1°F-2.7°C 12.7°F-10.7°C 54% 7.6 mph NNW12.2 kmh NNW 18.0 mph29.0 kmh 30.63 in1037.3 mb 0.00 in0.0 mm 0.00 in0.0 mm 0.00 in0.0 mm
01:05 AM 27.2°F-2.7°C 12.8°F-10.7°C 54% 9.5 mph N15.3 kmh N 18.0 mph29.0 kmh 30.63 in1037.3 mb 0.00 in0.0 mm 0.00 in0.0 mm 0.00 in0.0 mm
01:00 AM 27.3°F-2.6°C 13.3°F-10.4°C 55% 8.1 mph N13.0 kmh N 18.0 mph29.0 kmh 30.62 in1036.9 mb 0.00 in0.0 mm 0.00 in0.0 mm 0.00 in0.0 mm
12:55 AM 27.4°F-2.6°C 13.4°F-10.3°C 55% 8.8 mph NNW14.2 kmh NNW 18.0 mph29.0 kmh 30.62 in1036.9 mb 0.00 in0.0 mm 0.00 in0.0 mm 0.00 in0.0 mm
12:50 AM 27.5°F-2.5°C 13.5°F-10.3°C 55% 7.0 mph NNW11.3 kmh NNW 16.0 mph25.7 kmh 30.63 in1037.3 mb 0.00 in0.0 mm 0.00 in0.0 mm 0.00 in0.0 mm
12:45 AM 27.6°F-2.4°C 13.6°F-10.2°C 55% 6.6 mph NNW10.6 kmh NNW 16.0 mph25.7 kmh 30.62 in1036.9 mb 0.00 in0.0 mm 0.00 in0.0 mm 0.00 in0.0 mm
12:40 AM 27.8°F-2.3°C 13.8°F-10.1°C 55% 7.2 mph NNW11.6 kmh NNW 14.0 mph22.5 kmh 30.62 in1036.9 mb 0.00 in0.0 mm 0.00 in0.0 mm 0.00 in0.0 mm
12:35 AM 27.9°F-2.3°C 13.9°F-10.1°C 55% 6.8 mph NNW10.9 kmh NNW 16.0 mph25.7 kmh 30.62 in1036.9 mb 0.00 in0.0 mm 0.00 in0.0 mm 0.00 in0.0 mm
12:30 AM 27.9°F-2.3°C 13.4°F-10.3°C 54% 10.3 mph NNW16.6 kmh NNW 17.0 mph27.4 kmh 30.62 in1036.9 mb 0.00 in0.0 mm 0.00 in0.0 mm 0.00 in0.0 mm
12:25 AM 28.1°F-2.2°C 14.0°F-10.0°C 55% 9.0 mph NNW14.5 kmh NNW 17.0 mph27.4 kmh 30.62 in1036.9 mb 0.00 in0.0 mm 0.00 in0.0 mm 0.00 in0.0 mm
12:20 AM 28.1°F-2.2°C 14.0°F-10.0°C 55% 8.3 mph NNW13.4 kmh NNW 16.0 mph25.7 kmh 30.62 in1036.9 mb 0.00 in0.0 mm 0.00 in0.0 mm 0.00 in0.0 mm
12:15 AM 28.2°F-2.1°C 14.5°F-9.7°C 56% 7.8 mph NNW12.6 kmh NNW 15.0 mph24.1 kmh 30.62 in1036.9 mb 0.00 in0.0 mm 0.00 in0.0 mm 0.00 in0.0 mm
12:10 AM 28.3°F-2.1°C 14.2°F-9.9°C 55% 7.7 mph NNW12.4 kmh NNW 15.0 mph24.1 kmh 30.61 in1036.6 mb 0.00 in0.0 mm 0.00 in0.0 mm 0.00 in0.0 mm
12:05 AM 28.4°F-2.0°C 14.3°F-9.8°C 55% 7.0 mph N11.3 kmh N 17.0 mph27.4 kmh 30.61 in1036.6 mb 0.00 in0.0 mm 0.00 in0.0 mm 0.00 in0.0 mm
12:00 AM 28.4°F-2.0°C 14.3°F-9.8°C 55% 6.6 mph NNW10.6 kmh NNW 17.0 mph27.4 kmh 30.61 in1036.6 mb 0.00 in0.0 mm 0.00 in0.0 mm 0.02 in0.5 mm